sensor_id;sensor_type;location;lat;lon;timestamp;P1;durP1;ratioP1;P2;durP2;ratioP2
15878;SDS011;61999;51.514;14.614;2023-07-13T00:01:12;3.33;;;1.70;;
15878;SDS011;61999;51.514;14.614;2023-07-13T00:03:41;2.03;;;1.50;;
15878;SDS011;61999;51.514;14.614;2023-07-13T00:06:09;1.97;;;1.17;;
15878;SDS011;61999;51.514;14.614;2023-07-13T00:08:37;1.60;;;1.50;;
15878;SDS011;61999;51.514;14.614;2023-07-13T00:11:05;1.60;;;1.50;;
15878;SDS011;61999;51.514;14.614;2023-07-13T00:13:33;1.70;;;1.60;;
15878;SDS011;61999;51.514;14.614;2023-07-13T00:16:05;2.63;;;1.40;;
15878;SDS011;61999;51.514;14.614;2023-07-13T00:18:35;1.60;;;1.50;;
15878;SDS011;61999;51.514;14.614;2023-07-13T00:21:04;1.80;;;1.20;;
15878;SDS011;61999;51.514;14.614;2023-07-13T00:23:32;1.60;;;1.50;;
15878;SDS011;61999;51.514;14.614;2023-07-13T00:26:01;1.73;;;1.63;;
15878;SDS011;61999;51.514;14.614;2023-07-13T00:28:31;1.70;;;1.60;;
15878;SDS011;61999;51.514;14.614;2023-07-13T00:31:00;1.70;;;1.60;;
15878;SDS011;61999;51.514;14.614;2023-07-13T00:33:30;2.33;;;1.40;;
15878;SDS011;61999;51.514;14.614;2023-07-13T00:35:58;1.13;;;1.13;;
15878;SDS011;61999;51.514;14.614;2023-07-13T00:38:26;1.40;;;1.30;;
15878;SDS011;61999;51.514;14.614;2023-07-13T00:40:54;1.20;;;1.20;;
15878;SDS011;61999;51.514;14.614;2023-07-13T00:43:23;1.40;;;1.30;;
15878;SDS011;61999;51.514;14.614;2023-07-13T00:46:09;1.93;;;1.47;;
15878;SDS011;61999;51.514;14.614;2023-07-13T00:48:50;1.30;;;1.20;;
15878;SDS011;61999;51.514;14.614;2023-07-13T00:51:21;1.67;;;1.40;;
15878;SDS011;61999;51.514;14.614;2023-07-13T00:53:59;1.70;;;1.30;;
15878;SDS011;61999;51.514;14.614;2023-07-13T00:56:32;2.10;;;1.50;;
15878;SDS011;61999;51.514;14.614;2023-07-13T00:59:01;1.70;;;1.60;;
15878;SDS011;61999;51.514;14.614;2023-07-13T01:01:33;1.60;;;1.50;;
15878;SDS011;61999;51.514;14.614;2023-07-13T01:04:04;1.73;;;1.60;;
15878;SDS011;61999;51.514;14.614;2023-07-13T01:06:34;2.33;;;2.13;;
15878;SDS011;61999;51.514;14.614;2023-07-13T01:09:03;2.20;;;1.93;;
15878;SDS011;61999;51.514;14.614;2023-07-13T01:11:34;2.00;;;1.80;;
15878;SDS011;61999;51.514;14.614;2023-07-13T01:14:03;1.40;;;1.30;;
15878;SDS011;61999;51.514;14.614;2023-07-13T01:16:32;1.60;;;1.50;;
15878;SDS011;61999;51.514;14.614;2023-07-13T01:19:09;1.67;;;1.57;;
15878;SDS011;61999;51.514;14.614;2023-07-13T01:21:57;1.50;;;1.40;;
15878;SDS011;61999;51.514;14.614;2023-07-13T01:24:25;3.23;;;1.83;;
15878;SDS011;61999;51.514;14.614;2023-07-13T01:26:53;2.10;;;1.90;;
15878;SDS011;61999;51.514;14.614;2023-07-13T01:29:21;2.07;;;1.60;;
15878;SDS011;61999;51.514;14.614;2023-07-13T01:31:49;2.13;;;1.77;;
15878;SDS011;61999;51.514;14.614;2023-07-13T01:34:17;2.07;;;1.97;;
15878;SDS011;61999;51.514;14.614;2023-07-13T01:36:45;2.40;;;2.20;;
15878;SDS011;61999;51.514;14.614;2023-07-13T01:39:16;2.30;;;1.77;;
15878;SDS011;61999;51.514;14.614;2023-07-13T01:41:47;1.93;;;1.83;;
15878;SDS011;61999;51.514;14.614;2023-07-13T01:44:15;1.70;;;1.60;;
15878;SDS011;61999;51.514;14.614;2023-07-13T01:46:43;2.03;;;1.83;;
15878;SDS011;61999;51.514;14.614;2023-07-13T01:49:11;1.77;;;1.67;;
15878;SDS011;61999;51.514;14.614;2023-07-13T01:51:39;2.30;;;1.80;;
15878;SDS011;61999;51.514;14.614;2023-07-13T01:54:07;2.30;;;2.03;;
15878;SDS011;61999;51.514;14.614;2023-07-13T01:56:36;1.93;;;1.83;;
15878;SDS011;61999;51.514;14.614;2023-07-13T01:59:05;1.73;;;1.63;;
15878;SDS011;61999;51.514;14.614;2023-07-13T02:01:32;2.30;;;2.10;;
15878;SDS011;61999;51.514;14.614;2023-07-13T02:04:01;2.53;;;2.33;;
15878;SDS011;61999;51.514;14.614;2023-07-13T02:06:29;3.83;;;2.60;;
15878;SDS011;61999;51.514;14.614;2023-07-13T02:08:57;2.50;;;2.30;;
15878;SDS011;61999;51.514;14.614;2023-07-13T02:11:26;2.47;;;2.27;;
15878;SDS011;61999;51.514;14.614;2023-07-13T02:14:00;3.50;;;2.63;;
15878;SDS011;61999;51.514;14.614;2023-07-13T02:16:29;2.40;;;2.30;;
15878;SDS011;61999;51.514;14.614;2023-07-13T02:18:58;2.00;;;1.90;;
15878;SDS011;61999;51.514;14.614;2023-07-13T02:21:26;1.80;;;1.70;;
15878;SDS011;61999;51.514;14.614;2023-07-13T02:23:55;2.27;;;2.07;;
15878;SDS011;61999;51.514;14.614;2023-07-13T02:26:23;3.27;;;1.90;;
15878;SDS011;61999;51.514;14.614;2023-07-13T02:28:52;3.67;;;2.53;;
15878;SDS011;61999;51.514;14.614;2023-07-13T02:31:21;3.90;;;2.30;;
15878;SDS011;61999;51.514;14.614;2023-07-13T02:33:49;2.00;;;1.70;;
15878;SDS011;61999;51.514;14.614;2023-07-13T02:36:17;2.13;;;1.90;;
15878;SDS011;61999;51.514;14.614;2023-07-13T02:38:46;2.27;;;2.00;;
15878;SDS011;61999;51.514;14.614;2023-07-13T02:41:17;3.07;;;2.30;;
15878;SDS011;61999;51.514;14.614;2023-07-13T02:43:45;2.07;;;1.87;;
15878;SDS011;61999;51.514;14.614;2023-07-13T02:46:13;1.83;;;1.73;;
15878;SDS011;61999;51.514;14.614;2023-07-13T02:48:42;2.00;;;1.90;;
15878;SDS011;61999;51.514;14.614;2023-07-13T02:51:10;3.00;;;1.90;;
15878;SDS011;61999;51.514;14.614;2023-07-13T02:53:38;2.40;;;2.00;;
15878;SDS011;61999;51.514;14.614;2023-07-13T02:56:06;2.63;;;1.60;;
15878;SDS011;61999;51.514;14.614;2023-07-13T02:58:34;2.03;;;1.93;;
15878;SDS011;61999;51.514;14.614;2023-07-13T03:01:06;2.47;;;1.90;;
15878;SDS011;61999;51.514;14.614;2023-07-13T03:03:35;2.43;;;1.80;;
15878;SDS011;61999;51.514;14.614;2023-07-13T03:06:05;2.47;;;2.30;;
15878;SDS011;61999;51.514;14.614;2023-07-13T03:08:34;6.63;;;2.53;;
15878;SDS011;61999;51.514;14.614;2023-07-13T03:11:03;3.23;;;1.93;;
15878;SDS011;61999;51.514;14.614;2023-07-13T03:13:34;2.47;;;2.27;;
15878;SDS011;61999;51.514;14.614;2023-07-13T03:16:02;2.23;;;1.90;;
15878;SDS011;61999;51.514;14.614;2023-07-13T03:18:32;2.73;;;1.90;;
15878;SDS011;61999;51.514;14.614;2023-07-13T03:21:00;3.27;;;2.30;;
15878;SDS011;61999;51.514;14.614;2023-07-13T03:23:29;3.37;;;2.50;;
15878;SDS011;61999;51.514;14.614;2023-07-13T03:26:01;4.53;;;2.30;;
15878;SDS011;61999;51.514;14.614;2023-07-13T03:28:31;4.00;;;2.33;;
15878;SDS011;61999;51.514;14.614;2023-07-13T03:31:01;2.23;;;2.03;;
15878;SDS011;61999;51.514;14.614;2023-07-13T03:33:31;3.33;;;2.03;;
15878;SDS011;61999;51.514;14.614;2023-07-13T03:36:00;2.40;;;2.10;;
15878;SDS011;61999;51.514;14.614;2023-07-13T03:38:29;3.53;;;2.57;;
15878;SDS011;61999;51.514;14.614;2023-07-13T03:40:57;3.80;;;2.47;;
15878;SDS011;61999;51.514;14.614;2023-07-13T03:43:25;2.33;;;2.10;;
15878;SDS011;61999;51.514;14.614;2023-07-13T03:45:53;5.10;;;2.43;;
15878;SDS011;61999;51.514;14.614;2023-07-13T03:48:22;3.17;;;2.33;;
15878;SDS011;61999;51.514;14.614;2023-07-13T03:50:50;2.63;;;2.40;;
15878;SDS011;61999;51.514;14.614;2023-07-13T03:53:18;5.17;;;3.17;;
15878;SDS011;61999;51.514;14.614;2023-07-13T03:55:47;4.17;;;2.77;;
15878;SDS011;61999;51.514;14.614;2023-07-13T03:58:27;2.93;;;2.60;;
15878;SDS011;61999;51.514;14.614;2023-07-13T04:01:01;3.40;;;2.23;;
15878;SDS011;61999;51.514;14.614;2023-07-13T04:03:32;3.67;;;2.50;;
15878;SDS011;61999;51.514;14.614;2023-07-13T04:06:00;4.13;;;2.57;;
15878;SDS011;61999;51.514;14.614;2023-07-13T04:08:30;3.23;;;2.80;;
15878;SDS011;61999;51.514;14.614;2023-07-13T04:11:03;3.87;;;2.43;;
15878;SDS011;61999;51.514;14.614;2023-07-13T04:13:32;2.43;;;2.20;;
15878;SDS011;61999;51.514;14.614;2023-07-13T04:16:00;2.83;;;2.33;;
15878;SDS011;61999;51.514;14.614;2023-07-13T04:18:28;3.33;;;2.70;;
15878;SDS011;61999;51.514;14.614;2023-07-13T04:20:56;3.73;;;2.73;;
15878;SDS011;61999;51.514;14.614;2023-07-13T04:23:24;4.57;;;2.80;;
15878;SDS011;61999;51.514;14.614;2023-07-13T04:25:52;3.97;;;2.90;;
15878;SDS011;61999;51.514;14.614;2023-07-13T04:28:22;6.53;;;2.87;;
15878;SDS011;61999;51.514;14.614;2023-07-13T04:30:52;4.90;;;3.00;;
15878;SDS011;61999;51.514;14.614;2023-07-13T04:33:21;7.90;;;3.30;;
15878;SDS011;61999;51.514;14.614;2023-07-13T04:35:49;5.40;;;2.83;;
15878;SDS011;61999;51.514;14.614;2023-07-13T04:38:20;6.73;;;2.73;;
15878;SDS011;61999;51.514;14.614;2023-07-13T04:40:50;6.83;;;2.53;;
15878;SDS011;61999;51.514;14.614;2023-07-13T04:43:19;3.80;;;2.73;;
15878;SDS011;61999;51.514;14.614;2023-07-13T04:45:48;4.57;;;2.73;;
15878;SDS011;61999;51.514;14.614;2023-07-13T04:48:17;6.57;;;3.40;;
15878;SDS011;61999;51.514;14.614;2023-07-13T04:50:46;4.40;;;2.60;;
15878;SDS011;61999;51.514;14.614;2023-07-13T04:53:16;6.27;;;2.87;;
15878;SDS011;61999;51.514;14.614;2023-07-13T04:55:44;4.33;;;2.53;;
15878;SDS011;61999;51.514;14.614;2023-07-13T04:58:13;5.33;;;2.80;;
15878;SDS011;61999;51.514;14.614;2023-07-13T05:00:41;5.00;;;3.00;;
15878;SDS011;61999;51.514;14.614;2023-07-13T05:03:10;5.37;;;2.70;;
15878;SDS011;61999;51.514;14.614;2023-07-13T05:05:38;6.03;;;2.67;;
15878;SDS011;61999;51.514;14.614;2023-07-13T05:08:06;6.37;;;3.00;;
15878;SDS011;61999;51.514;14.614;2023-07-13T05:10:35;7.27;;;3.10;;
15878;SDS011;61999;51.514;14.614;2023-07-13T05:13:03;6.87;;;2.80;;
15878;SDS011;61999;51.514;14.614;2023-07-13T05:15:32;4.30;;;2.73;;
15878;SDS011;61999;51.514;14.614;2023-07-13T05:18:00;5.67;;;2.53;;
15878;SDS011;61999;51.514;14.614;2023-07-13T05:20:30;6.37;;;2.70;;
15878;SDS011;61999;51.514;14.614;2023-07-13T05:22:58;4.67;;;3.17;;
15878;SDS011;61999;51.514;14.614;2023-07-13T05:25:26;5.93;;;3.13;;
15878;SDS011;61999;51.514;14.614;2023-07-13T05:27:54;6.03;;;2.60;;
15878;SDS011;61999;51.514;14.614;2023-07-13T05:30:22;4.47;;;2.87;;
15878;SDS011;61999;51.514;14.614;2023-07-13T05:32:50;3.23;;;2.77;;
15878;SDS011;61999;51.514;14.614;2023-07-13T05:35:18;3.20;;;2.90;;
15878;SDS011;61999;51.514;14.614;2023-07-13T05:37:47;3.00;;;2.80;;
15878;SDS011;61999;51.514;14.614;2023-07-13T05:40:15;3.20;;;2.93;;
15878;SDS011;61999;51.514;14.614;2023-07-13T05:42:43;4.03;;;2.93;;
15878;SDS011;61999;51.514;14.614;2023-07-13T05:45:11;4.90;;;2.67;;
15878;SDS011;61999;51.514;14.614;2023-07-13T05:47:39;3.20;;;2.83;;
15878;SDS011;61999;51.514;14.614;2023-07-13T05:50:07;2.60;;;2.50;;
15878;SDS011;61999;51.514;14.614;2023-07-13T05:52:36;3.27;;;2.97;;
15878;SDS011;61999;51.514;14.614;2023-07-13T05:55:05;3.30;;;2.97;;
15878;SDS011;61999;51.514;14.614;2023-07-13T05:57:34;2.77;;;2.57;;
15878;SDS011;61999;51.514;14.614;2023-07-13T06:00:02;3.60;;;2.90;;
15878;SDS011;61999;51.514;14.614;2023-07-13T06:02:31;4.37;;;3.00;;
15878;SDS011;61999;51.514;14.614;2023-07-13T06:04:59;2.47;;;2.33;;
15878;SDS011;61999;51.514;14.614;2023-07-13T06:07:27;2.70;;;2.50;;
15878;SDS011;61999;51.514;14.614;2023-07-13T06:09:55;3.70;;;2.73;;
15878;SDS011;61999;51.514;14.614;2023-07-13T06:12:26;3.03;;;2.60;;
15878;SDS011;61999;51.514;14.614;2023-07-13T06:14:54;2.87;;;2.67;;
15878;SDS011;61999;51.514;14.614;2023-07-13T06:17:22;4.23;;;2.50;;
15878;SDS011;61999;51.514;14.614;2023-07-13T06:19:50;4.07;;;2.60;;
15878;SDS011;61999;51.514;14.614;2023-07-13T06:22:19;4.50;;;2.80;;
15878;SDS011;61999;51.514;14.614;2023-07-13T06:24:47;2.70;;;2.50;;
15878;SDS011;61999;51.514;14.614;2023-07-13T06:27:15;2.93;;;2.70;;
15878;SDS011;61999;51.514;14.614;2023-07-13T06:29:45;2.23;;;2.13;;
15878;SDS011;61999;51.514;14.614;2023-07-13T06:32:13;4.00;;;2.30;;
15878;SDS011;61999;51.514;14.614;2023-07-13T06:34:41;4.30;;;2.97;;
15878;SDS011;61999;51.514;14.614;2023-07-13T06:37:09;2.87;;;2.70;;
15878;SDS011;61999;51.514;14.614;2023-07-13T06:39:37;3.03;;;2.83;;
15878;SDS011;61999;51.514;14.614;2023-07-13T06:42:06;2.63;;;2.43;;
15878;SDS011;61999;51.514;14.614;2023-07-13T06:44:34;2.30;;;2.10;;
15878;SDS011;61999;51.514;14.614;2023-07-13T06:47:04;2.90;;;2.33;;
15878;SDS011;61999;51.514;14.614;2023-07-13T06:49:33;2.73;;;2.30;;
15878;SDS011;61999;51.514;14.614;2023-07-13T06:52:02;3.57;;;2.10;;
15878;SDS011;61999;51.514;14.614;2023-07-13T06:54:32;2.43;;;2.13;;
15878;SDS011;61999;51.514;14.614;2023-07-13T06:57:01;2.57;;;2.07;;
15878;SDS011;61999;51.514;14.614;2023-07-13T06:59:29;2.37;;;2.17;;
15878;SDS011;61999;51.514;14.614;2023-07-13T07:01:57;2.37;;;1.93;;
15878;SDS011;61999;51.514;14.614;2023-07-13T07:04:26;2.17;;;2.00;;
15878;SDS011;61999;51.514;14.614;2023-07-13T07:06:54;2.43;;;1.87;;
15878;SDS011;61999;51.514;14.614;2023-07-13T07:09:24;4.23;;;2.60;;
15878;SDS011;61999;51.514;14.614;2023-07-13T07:11:52;2.10;;;2.00;;
15878;SDS011;61999;51.514;14.614;2023-07-13T07:14:27;2.90;;;2.67;;
15878;SDS011;61999;51.514;14.614;2023-07-13T07:16:56;1.90;;;1.80;;
15878;SDS011;61999;51.514;14.614;2023-07-13T07:19:24;3.67;;;2.33;;
15878;SDS011;61999;51.514;14.614;2023-07-13T07:21:55;2.20;;;2.00;;
15878;SDS011;61999;51.514;14.614;2023-07-13T07:24:23;3.33;;;2.10;;
15878;SDS011;61999;51.514;14.614;2023-07-13T07:26:51;2.13;;;1.93;;
15878;SDS011;61999;51.514;14.614;2023-07-13T07:29:22;3.50;;;1.90;;
15878;SDS011;61999;51.514;14.614;2023-07-13T07:31:59;2.80;;;2.07;;
15878;SDS011;61999;51.514;14.614;2023-07-13T07:34:31;1.70;;;1.60;;
15878;SDS011;61999;51.514;14.614;2023-07-13T07:36:59;2.77;;;1.70;;
15878;SDS011;61999;51.514;14.614;2023-07-13T07:39:31;1.67;;;1.47;;
15878;SDS011;61999;51.514;14.614;2023-07-13T07:41:59;2.17;;;1.73;;
15878;SDS011;61999;51.514;14.614;2023-07-13T07:44:27;1.73;;;1.60;;
15878;SDS011;61999;51.514;14.614;2023-07-13T07:46:55;1.73;;;1.57;;
15878;SDS011;61999;51.514;14.614;2023-07-13T07:49:24;3.17;;;1.60;;
15878;SDS011;61999;51.514;14.614;2023-07-13T07:51:54;3.47;;;1.60;;
15878;SDS011;61999;51.514;14.614;2023-07-13T07:54:22;1.73;;;1.40;;
15878;SDS011;61999;51.514;14.614;2023-07-13T07:56:55;4.17;;;1.30;;
15878;SDS011;61999;51.514;14.614;2023-07-13T07:59:26;1.30;;;1.20;;
15878;SDS011;61999;51.514;14.614;2023-07-13T08:01:57;1.30;;;1.17;;
15878;SDS011;61999;51.514;14.614;2023-07-13T08:04:28;2.40;;;1.90;;
15878;SDS011;61999;51.514;14.614;2023-07-13T08:07:00;2.43;;;1.37;;
15878;SDS011;61999;51.514;14.614;2023-07-13T08:09:29;1.67;;;1.50;;
15878;SDS011;61999;51.514;14.614;2023-07-13T08:11:57;2.23;;;1.70;;
15878;SDS011;61999;51.514;14.614;2023-07-13T08:14:28;2.63;;;1.70;;
15878;SDS011;61999;51.514;14.614;2023-07-13T08:17:04;1.80;;;1.70;;
15878;SDS011;61999;51.514;14.614;2023-07-13T08:19:32;2.07;;;1.70;;
15878;SDS011;61999;51.514;14.614;2023-07-13T08:22:01;1.87;;;1.50;;
15878;SDS011;61999;51.514;14.614;2023-07-13T08:24:30;2.30;;;1.50;;
15878;SDS011;61999;51.514;14.614;2023-07-13T08:26:58;1.60;;;1.40;;
15878;SDS011;61999;51.514;14.614;2023-07-13T08:29:26;2.00;;;1.70;;
15878;SDS011;61999;51.514;14.614;2023-07-13T08:31:54;3.77;;;1.70;;
15878;SDS011;61999;51.514;14.614;2023-07-13T08:34:22;1.63;;;1.13;;
15878;SDS011;61999;51.514;14.614;2023-07-13T08:36:51;3.30;;;1.27;;
15878;SDS011;61999;51.514;14.614;2023-07-13T08:39:21;1.57;;;1.20;;
15878;SDS011;61999;51.514;14.614;2023-07-13T08:41:50;2.50;;;1.70;;
15878;SDS011;61999;51.514;14.614;2023-07-13T08:44:27;2.90;;;1.57;;
15878;SDS011;61999;51.514;14.614;2023-07-13T08:47:11;2.63;;;1.37;;
15878;SDS011;61999;51.514;14.614;2023-07-13T08:49:43;1.50;;;1.23;;
15878;SDS011;61999;51.514;14.614;2023-07-13T08:52:14;1.60;;;1.40;;
15878;SDS011;61999;51.514;14.614;2023-07-13T08:54:58;2.40;;;1.20;;
15878;SDS011;61999;51.514;14.614;2023-07-13T08:57:42;1.30;;;1.20;;
15878;SDS011;61999;51.514;14.614;2023-07-13T09:00:20;2.00;;;1.30;;
15878;SDS011;61999;51.514;14.614;2023-07-13T09:02:52;1.40;;;1.30;;
15878;SDS011;61999;51.514;14.614;2023-07-13T09:05:26;1.30;;;1.10;;
15878;SDS011;61999;51.514;14.614;2023-07-13T09:08:04;2.33;;;1.30;;
15878;SDS011;61999;51.514;14.614;2023-07-13T09:11:05;2.23;;;1.20;;
15878;SDS011;61999;51.514;14.614;2023-07-13T09:13:48;1.80;;;1.20;;
15878;SDS011;61999;51.514;14.614;2023-07-13T09:16:27;2.77;;;1.10;;
15878;SDS011;61999;51.514;14.614;2023-07-13T09:18:56;1.33;;;1.23;;
15878;SDS011;61999;51.514;14.614;2023-07-13T09:21:32;2.00;;;1.37;;
15878;SDS011;61999;51.514;14.614;2023-07-13T09:24:19;1.47;;;1.10;;
15878;SDS011;61999;51.514;14.614;2023-07-13T09:27:05;1.80;;;1.20;;
15878;SDS011;61999;51.514;14.614;2023-07-13T09:29:45;2.87;;;1.10;;
15878;SDS011;61999;51.514;14.614;2023-07-13T09:32:21;2.07;;;1.20;;
15878;SDS011;61999;51.514;14.614;2023-07-13T09:34:53;3.20;;;1.23;;
15878;SDS011;61999;51.514;14.614;2023-07-13T09:37:24;1.40;;;0.90;;
15878;SDS011;61999;51.514;14.614;2023-07-13T09:40:00;3.90;;;1.43;;
15878;SDS011;61999;51.514;14.614;2023-07-13T09:42:33;3.10;;;1.40;;
15878;SDS011;61999;51.514;14.614;2023-07-13T09:45:01;1.30;;;1.10;;
15878;SDS011;61999;51.514;14.614;2023-07-13T09:47:32;2.00;;;1.43;;
15878;SDS011;61999;51.514;14.614;2023-07-13T09:50:09;2.50;;;1.60;;
15878;SDS011;61999;51.514;14.614;2023-07-13T09:52:43;3.07;;;1.70;;
15878;SDS011;61999;51.514;14.614;2023-07-13T09:55:23;2.93;;;1.60;;
15878;SDS011;61999;51.514;14.614;2023-07-13T09:57:55;1.50;;;1.33;;
15878;SDS011;61999;51.514;14.614;2023-07-13T10:00:25;2.87;;;1.50;;
15878;SDS011;61999;51.514;14.614;2023-07-13T10:02:58;3.03;;;1.50;;
15878;SDS011;61999;51.514;14.614;2023-07-13T10:05:40;3.10;;;1.63;;
15878;SDS011;61999;51.514;14.614;2023-07-13T10:08:18;1.90;;;1.40;;
15878;SDS011;61999;51.514;14.614;2023-07-13T10:10:57;2.07;;;1.53;;
15878;SDS011;61999;51.514;14.614;2023-07-13T10:13:35;2.13;;;1.30;;
15878;SDS011;61999;51.514;14.614;2023-07-13T10:16:09;4.00;;;1.53;;
15878;SDS011;61999;51.514;14.614;2023-07-13T10:18:40;3.70;;;1.70;;
15878;SDS011;61999;51.514;14.614;2023-07-13T10:21:15;2.30;;;1.30;;
15878;SDS011;61999;51.514;14.614;2023-07-13T10:23:57;1.83;;;1.03;;
15878;SDS011;61999;51.514;14.614;2023-07-13T10:26:52;1.63;;;1.20;;
15878;SDS011;61999;51.514;14.614;2023-07-13T10:29:35;2.83;;;1.30;;
15878;SDS011;61999;51.514;14.614;2023-07-13T10:32:12;2.70;;;1.53;;
15878;SDS011;61999;51.514;14.614;2023-07-13T10:34:42;1.20;;;1.10;;
15878;SDS011;61999;51.514;14.614;2023-07-13T10:37:18;3.57;;;1.13;;
15878;SDS011;61999;51.514;14.614;2023-07-13T10:39:52;1.73;;;1.30;;
15878;SDS011;61999;51.514;14.614;2023-07-13T10:42:27;2.50;;;1.37;;
15878;SDS011;61999;51.514;14.614;2023-07-13T10:45:04;1.67;;;1.17;;
15878;SDS011;61999;51.514;14.614;2023-07-13T10:47:49;1.57;;;1.33;;
15878;SDS011;61999;51.514;14.614;2023-07-13T10:50:22;1.73;;;1.53;;
15878;SDS011;61999;51.514;14.614;2023-07-13T10:52:55;2.20;;;1.60;;
15878;SDS011;61999;51.514;14.614;2023-07-13T10:55:37;1.83;;;1.30;;
15878;SDS011;61999;51.514;14.614;2023-07-13T10:58:29;2.20;;;1.27;;
15878;SDS011;61999;51.514;14.614;2023-07-13T11:01:17;2.87;;;1.43;;
15878;SDS011;61999;51.514;14.614;2023-07-13T11:03:47;2.05;;;1.15;;
15878;SDS011;61999;51.514;14.614;2023-07-13T11:06:29;3.05;;;1.75;;
15878;SDS011;61999;51.514;14.614;2023-07-13T11:09:17;2.50;;;1.35;;
15878;SDS011;61999;51.514;14.614;2023-07-13T11:11:59;1.75;;;1.20;;
15878;SDS011;61999;51.514;14.614;2023-07-13T11:14:31;1.33;;;1.17;;
15878;SDS011;61999;51.514;14.614;2023-07-13T11:17:25;4.35;;;1.48;;
15878;SDS011;61999;51.514;14.614;2023-07-13T11:20:19;2.00;;;1.33;;
15878;SDS011;61999;51.514;14.614;2023-07-13T11:23:07;1.37;;;1.27;;
15878;SDS011;61999;51.514;14.614;2023-07-13T11:25:57;2.43;;;1.63;;
15878;SDS011;61999;51.514;14.614;2023-07-13T11:28:29;2.77;;;1.20;;
15878;SDS011;61999;51.514;14.614;2023-07-13T11:31:03;2.57;;;1.50;;
15878;SDS011;61999;51.514;14.614;2023-07-13T11:33:55;1.90;;;1.40;;
15878;SDS011;61999;51.514;14.614;2023-07-13T11:36:29;1.77;;;1.67;;
15878;SDS011;61999;51.514;14.614;2023-07-13T11:39:11;1.77;;;1.20;;
15878;SDS011;61999;51.514;14.614;2023-07-13T11:41:49;4.07;;;1.33;;
15878;SDS011;61999;51.514;14.614;2023-07-13T11:44:22;2.27;;;1.40;;
15878;SDS011;61999;51.514;14.614;2023-07-13T11:46:52;2.90;;;1.20;;
15878;SDS011;61999;51.514;14.614;2023-07-13T11:49:25;3.37;;;1.47;;
15878;SDS011;61999;51.514;14.614;2023-07-13T11:51:58;1.70;;;1.30;;
15878;SDS011;61999;51.514;14.614;2023-07-13T11:54:29;2.43;;;1.47;;
15878;SDS011;61999;51.514;14.614;2023-07-13T11:57:00;1.77;;;1.50;;
15878;SDS011;61999;51.514;14.614;2023-07-13T11:59:43;2.63;;;1.53;;
15878;SDS011;61999;51.514;14.614;2023-07-13T12:02:13;2.77;;;1.50;;
15878;SDS011;61999;51.514;14.614;2023-07-13T12:04:54;2.03;;;1.77;;
15878;SDS011;61999;51.514;14.614;2023-07-13T12:07:23;3.30;;;1.70;;
15878;SDS011;61999;51.514;14.614;2023-07-13T12:09:51;3.00;;;1.57;;
15878;SDS011;61999;51.514;14.614;2023-07-13T12:12:21;3.17;;;1.43;;
15878;SDS011;61999;51.514;14.614;2023-07-13T12:14:57;2.90;;;1.60;;
15878;SDS011;61999;51.514;14.614;2023-07-13T12:17:25;2.60;;;1.47;;
15878;SDS011;61999;51.514;14.614;2023-07-13T12:19:57;2.00;;;1.40;;
15878;SDS011;61999;51.514;14.614;2023-07-13T12:22:25;1.90;;;1.33;;
15878;SDS011;61999;51.514;14.614;2023-07-13T12:24:55;1.60;;;1.50;;
15878;SDS011;61999;51.514;14.614;2023-07-13T12:27:24;1.93;;;1.20;;
15878;SDS011;61999;51.514;14.614;2023-07-13T12:29:57;1.60;;;1.47;;
15878;SDS011;61999;51.514;14.614;2023-07-13T12:32:28;2.53;;;1.30;;
15878;SDS011;61999;51.514;14.614;2023-07-13T12:35:07;2.83;;;1.90;;
15878;SDS011;61999;51.514;14.614;2023-07-13T12:37:42;1.93;;;1.60;;
15878;SDS011;61999;51.514;14.614;2023-07-13T12:40:13;2.57;;;1.50;;
15878;SDS011;61999;51.514;14.614;2023-07-13T12:42:45;2.67;;;1.60;;
15878;SDS011;61999;51.514;14.614;2023-07-13T12:45:19;2.00;;;1.43;;
15878;SDS011;61999;51.514;14.614;2023-07-13T12:47:53;3.17;;;1.93;;
15878;SDS011;61999;51.514;14.614;2023-07-13T12:50:36;3.27;;;1.43;;
15878;SDS011;61999;51.514;14.614;2023-07-13T12:53:12;2.27;;;1.40;;
15878;SDS011;61999;51.514;14.614;2023-07-13T12:55:47;1.40;;;1.00;;
15878;SDS011;61999;51.514;14.614;2023-07-13T12:58:19;3.87;;;1.60;;
15878;SDS011;61999;51.514;14.614;2023-07-13T13:00:55;2.10;;;1.37;;
15878;SDS011;61999;51.514;14.614;2023-07-13T13:03:29;3.47;;;1.90;;
15878;SDS011;61999;51.514;14.614;2023-07-13T13:06:03;1.20;;;1.10;;
15878;SDS011;61999;51.514;14.614;2023-07-13T13:08:33;2.40;;;1.30;;
15878;SDS011;61999;51.514;14.614;2023-07-13T13:11:03;2.33;;;1.50;;
15878;SDS011;61999;51.514;14.614;2023-07-13T13:13:31;2.57;;;1.50;;
15878;SDS011;61999;51.514;14.614;2023-07-13T13:16:01;2.27;;;1.30;;
15878;SDS011;61999;51.514;14.614;2023-07-13T13:18:36;1.75;;;1.20;;
15878;SDS011;61999;51.514;14.614;2023-07-13T13:21:06;1.92;;;1.30;;
15878;SDS011;61999;51.514;14.614;2023-07-13T13:23:35;1.25;;;1.15;;
15878;SDS011;61999;51.514;14.614;2023-07-13T13:26:03;1.58;;;1.02;;
15878;SDS011;61999;51.514;14.614;2023-07-13T13:28:36;2.28;;;1.20;;
15878;SDS011;61999;51.514;14.614;2023-07-13T13:31:04;3.30;;;1.35;;
15878;SDS011;61999;51.514;14.614;2023-07-13T13:33:43;2.85;;;1.60;;
15878;SDS011;61999;51.514;14.614;2023-07-13T13:36:16;1.67;;;1.08;;
15878;SDS011;61999;51.514;14.614;2023-07-13T13:38:48;1.38;;;0.98;;
15878;SDS011;61999;51.514;14.614;2023-07-13T13:41:19;1.58;;;1.40;;
15878;SDS011;61999;51.514;14.614;2023-07-13T13:43:51;1.40;;;1.10;;
15878;SDS011;61999;51.514;14.614;2023-07-13T13:46:21;2.10;;;1.23;;
15878;SDS011;61999;51.514;14.614;2023-07-13T13:48:55;1.30;;;1.20;;
15878;SDS011;61999;51.514;14.614;2023-07-13T13:51:25;2.20;;;1.60;;
15878;SDS011;61999;51.514;14.614;2023-07-13T13:53:53;3.10;;;1.35;;
15878;SDS011;61999;51.514;14.614;2023-07-13T13:56:22;2.90;;;1.40;;
15878;SDS011;61999;51.514;14.614;2023-07-13T13:58:51;2.38;;;1.40;;
15878;SDS011;61999;51.514;14.614;2023-07-13T14:01:20;2.88;;;1.30;;
15878;SDS011;61999;51.514;14.614;2023-07-13T14:03:50;3.08;;;1.77;;
15878;SDS011;61999;51.514;14.614;2023-07-13T14:06:18;1.50;;;1.30;;
15878;SDS011;61999;51.514;14.614;2023-07-13T14:08:49;1.73;;;1.30;;
15878;SDS011;61999;51.514;14.614;2023-07-13T14:11:18;2.97;;;1.60;;
15878;SDS011;61999;51.514;14.614;2023-07-13T14:13:49;1.80;;;1.13;;
15878;SDS011;61999;51.514;14.614;2023-07-13T14:16:21;1.93;;;1.40;;
15878;SDS011;61999;51.514;14.614;2023-07-13T14:18:55;1.30;;;1.03;;
15878;SDS011;61999;51.514;14.614;2023-07-13T14:21:27;1.73;;;1.37;;
15878;SDS011;61999;51.514;14.614;2023-07-13T14:23:58;1.47;;;1.37;;
15878;SDS011;61999;51.514;14.614;2023-07-13T14:26:26;1.27;;;1.10;;
15878;SDS011;61999;51.514;14.614;2023-07-13T14:28:56;1.60;;;1.50;;
15878;SDS011;61999;51.514;14.614;2023-07-13T14:31:25;1.70;;;1.10;;
15878;SDS011;61999;51.514;14.614;2023-07-13T14:33:56;1.60;;;1.00;;
15878;SDS011;61999;51.514;14.614;2023-07-13T14:36:26;3.20;;;1.37;;
15878;SDS011;61999;51.514;14.614;2023-07-13T14:38:59;1.77;;;1.40;;
15878;SDS011;61999;51.514;14.614;2023-07-13T14:41:38;3.03;;;1.40;;
15878;SDS011;61999;51.514;14.614;2023-07-13T14:44:12;2.60;;;1.23;;
15878;SDS011;61999;51.514;14.614;2023-07-13T14:46:42;2.50;;;1.30;;
15878;SDS011;61999;51.514;14.614;2023-07-13T14:49:15;3.43;;;1.07;;
15878;SDS011;61999;51.514;14.614;2023-07-13T14:52:23;2.67;;;1.33;;
15878;SDS011;61999;51.514;14.614;2023-07-13T14:54:54;1.53;;;1.30;;
15878;SDS011;61999;51.514;14.614;2023-07-13T14:57:22;2.20;;;1.30;;
15878;SDS011;61999;51.514;14.614;2023-07-13T14:59:51;1.75;;;1.20;;